Time;durP1;ratioP1;P1;durP2;ratioP2;P2;SDS_P1;SDS_P2;PMS_P1;PMS_P2;Temp;Humidity;BMP_temperature;BMP_pressure;BME280_temperature;BME280_humidity;BME280_pressure;Samples;Min_cycle;Max_cycle;Signal;HPM_P1;HPM_P2
2022/08/22 00:00:25;;;;;;;9.00;5.00;;;;;;;20.83;55.62;97851.19;8285386;28;20481;-72
2022/08/22 00:04:31;;;;;;;7.03;5.40;;;;;;;20.85;55.38;97849.28;8284946;28;20433;-72
2022/08/22 00:08:45;;;;;;;8.13;5.53;;;;;;;20.86;55.70;97851.72;8284932;28;20245;-72
2022/08/22 00:12:53;;;;;;;7.87;5.57;;;;;;;20.77;55.96;97844.69;8284624;28;20546;-72
2022/08/22 00:17:01;;;;;;;10.47;5.50;;;;;;;20.73;55.86;97843.25;8285197;28;20425;-72
2022/08/22 00:21:12;;;;;;;7.07;5.70;;;;;;;20.75;55.85;97848.41;8284967;28;20559;-72
2022/08/22 00:25:35;;;;;;;8.17;5.87;;;;;;;20.59;56.26;97849.72;8283607;28;20236;-72
2022/08/22 00:29:43;;;;;;;6.93;5.33;;;;;;;20.60;56.03;97850.56;8284480;28;20242;-73
2022/08/22 00:33:51;;;;;;;6.40;5.40;;;;;;;20.65;56.10;97848.38;8284296;28;20424;-73
2022/08/22 00:38:01;;;;;;;8.53;5.87;;;;;;;20.59;56.14;97847.06;8284172;28;20232;-73
2022/08/22 00:42:23;;;;;;;8.23;5.53;;;;;;;20.59;56.16;97844.44;8284625;28;20248;-73
2022/08/22 00:46:57;;;;;;;8.87;6.23;;;;;;;20.52;56.51;97840.69;8283872;28;20348;-73
2022/08/22 00:51:35;;;;;;;10.07;5.90;;;;;;;20.53;56.80;97844.16;8239509;28;20304;-73
2022/08/22 00:55:50;;;;;;;9.70;5.60;;;;;;;20.52;56.60;97843.31;8200549;28;20244;-73
2022/08/22 01:00:08;;;;;;;7.37;5.23;;;;;;;20.49;56.85;97851.50;8283503;28;20285;-74
2022/08/22 01:04:30;;;;;;;9.03;5.90;;;;;;;20.46;56.90;97847.31;8283366;28;20345;-74
2022/08/22 01:08:50;;;;;;;6.83;5.60;;;;;;;20.49;56.40;97844.41;8283203;28;20237;-74
2022/08/22 01:13:14;;;;;;;6.80;5.70;;;;;;;20.39;56.86;97843.56;8282835;28;20230;-74
2022/08/22 01:17:48;;;;;;;7.73;5.03;;;;;;;20.31;56.37;97841.59;8282858;28;20260;-74
2022/08/22 01:22:05;;;;;;;11.03;5.83;;;;;;;20.28;56.84;97838.41;8282080;28;20236;-73
2022/08/22 01:26:51;;;;;;;10.20;5.63;;;;;;;20.22;57.03;97845.03;8282396;28;20268;-74
2022/08/22 01:31:23;;;;;;;8.07;5.63;;;;;;;20.32;57.01;97845.06;8263189;28;20237;-74
2022/08/22 01:35:52;;;;;;;5.80;5.07;;;;;;;20.25;57.18;97843.91;8282122;28;20240;-74
2022/08/22 01:40:31;;;;;;;6.67;5.77;;;;;;;20.21;57.27;97843.34;8245776;28;20251;-74
2022/08/22 01:44:51;;;;;;;8.00;5.60;;;;;;;20.20;56.77;97843.47;8282087;28;20233;-74
2022/08/22 01:48:59;;;;;;;7.60;5.60;;;;;;;20.14;56.54;97842.19;8281618;28;20231;-74
2022/08/22 01:53:06;;;;;;;7.70;5.20;;;;;;;20.09;57.32;97847.84;8281978;28;20231;-74
2022/08/22 01:57:10;;;;;;;9.93;5.60;;;;;;;20.02;57.03;97851.97;8281618;28;20233;-74
2022/08/22 02:01:25;;;;;;;7.33;5.13;;;;;;;20.07;56.94;97852.41;8281835;28;20244;-74
2022/08/22 02:05:35;;;;;;;8.47;5.37;;;;;;;19.95;57.42;97850.81;8281471;28;20524;-74
2022/08/22 02:09:45;;;;;;;6.80;5.40;;;;;;;20.07;57.30;97856.84;8281533;28;20237;-74
2022/08/22 02:13:57;;;;;;;6.70;5.20;;;;;;;20.01;57.21;97859.97;8281109;28;20237;-74
2022/08/22 02:18:12;;;;;;;6.30;5.00;;;;;;;19.99;57.04;97854.00;8281452;28;20229;-74
2022/08/22 02:22:24;;;;;;;7.10;5.60;;;;;;;19.90;57.43;97855.66;8281129;28;20235;-74
2022/08/22 02:26:39;;;;;;;8.00;5.13;;;;;;;19.88;57.28;97854.94;8281301;28;20245;-74
2022/08/22 02:30:46;;;;;;;7.73;5.30;;;;;;;19.78;57.45;97851.41;8281193;28;20248;-74
2022/08/22 02:34:58;;;;;;;7.57;5.30;;;;;;;19.79;57.71;97853.09;8280900;28;20233;-73
2022/08/22 02:39:07;;;;;;;7.53;5.03;;;;;;;19.71;57.37;97851.06;8281341;28;20556;-74
2022/08/22 02:43:16;;;;;;;7.97;5.23;;;;;;;19.67;57.03;97854.91;8281313;28;20235;-74
2022/08/22 02:47:27;;;;;;;8.63;5.10;;;;;;;19.65;57.48;97855.03;8283554;28;20424;-73
2022/08/22 02:51:37;;;;;;;6.93;5.30;;;;;;;19.57;57.83;97857.44;8288021;28;20232;-74
2022/08/22 02:55:46;;;;;;;8.47;5.40;;;;;;;19.59;58.10;97852.94;8287866;28;20229;-74
2022/08/22 03:00:09;;;;;;;9.53;5.20;;;;;;;19.54;57.84;97866.41;8287233;28;20246;-74
2022/08/22 03:04:54;;;;;;;6.73;5.73;;;;;;;19.47;58.59;97861.81;8287551;28;20525;-74
2022/08/22 03:09:06;;;;;;;7.33;5.70;;;;;;;19.44;58.36;97854.16;8280954;28;20237;-73
2022/08/22 03:13:11;;;;;;;7.90;6.13;;;;;;;19.45;58.53;97859.31;8287588;28;20246;-74
2022/08/22 03:17:25;;;;;;;9.50;5.90;;;;;;;19.46;58.18;97860.16;8287375;28;20234;-74
2022/08/22 03:21:33;;;;;;;7.20;5.97;;;;;;;19.43;58.36;97849.91;8286979;28;20233;-74
2022/08/22 03:25:40;;;;;;;9.47;5.77;;;;;;;19.45;57.97;97859.31;8286414;28;20273;-74
2022/08/22 03:29:47;;;;;;;7.73;5.90;;;;;;;19.37;58.51;97864.34;8286861;28;20234;-74
2022/08/22 03:34:17;;;;;;;8.03;5.30;;;;;;;19.42;58.36;97870.06;8286410;28;20243;-73
2022/08/22 03:38:23;;;;;;;8.23;6.07;;;;;;;19.30;58.44;97865.81;8286566;28;20242;-74
2022/08/22 03:43:07;;;;;;;10.00;5.47;;;;;;;19.29;58.32;97872.03;8286598;28;20264;-74
2022/08/22 03:47:32;;;;;;;7.97;5.80;;;;;;;19.24;58.38;97872.41;8256371;28;20226;-74
2022/08/22 03:52:01;;;;;;;8.53;5.97;;;;;;;19.31;58.02;97873.56;8286244;28;20234;-74
2022/08/22 03:56:26;;;;;;;6.53;5.93;;;;;;;19.24;58.39;97869.78;8273777;28;20407;-74
2022/08/22 04:00:42;;;;;;;7.67;5.43;;;;;;;19.29;58.31;97872.88;8239860;28;20254;-74
2022/08/22 04:05:28;;;;;;;10.53;5.67;;;;;;;19.26;57.95;97878.34;8285722;28;20520;-74
2022/08/22 04:09:44;;;;;;;6.00;5.40;;;;;;;19.19;58.33;97882.47;8285182;28;20243;-74
2022/08/22 04:13:57;;;;;;;8.37;6.20;;;;;;;19.24;58.43;97889.94;8285234;28;20439;-74
2022/08/22 04:18:08;;;;;;;8.93;5.93;;;;;;;19.18;58.18;97885.19;8285345;28;20590;-74
2022/08/22 04:22:26;;;;;;;8.47;5.93;;;;;;;19.08;58.51;97887.75;8284870;28;20557;-74
2022/08/22 04:26:37;;;;;;;7.23;5.60;;;;;;;19.05;58.00;97885.34;8285122;28;20234;-74
2022/08/22 04:30:44;;;;;;;7.23;5.57;;;;;;;19.01;58.07;97889.19;8284752;28;20245;-74
2022/08/22 04:34:50;;;;;;;8.00;5.73;;;;;;;19.05;57.76;97896.66;8284874;28;20241;-75
2022/08/22 04:38:58;;;;;;;8.57;5.10;;;;;;;19.04;57.84;97900.28;8284183;28;20252;-73
2022/08/22 04:43:05;;;;;;;6.90;5.47;;;;;;;18.98;58.56;97897.28;8284437;28;20241;-74
2022/08/22 04:47:28;;;;;;;6.50;5.80;;;;;;;19.00;58.83;97906.72;8284593;28;20233;-73
2022/08/22 04:51:35;;;;;;;7.93;6.00;;;;;;;19.13;59.13;97903.94;8284143;28;20238;-73
2022/08/22 04:55:46;;;;;;;8.43;6.80;;;;;;;19.17;58.89;97907.13;8284051;28;20233;-73
2022/08/22 04:59:51;;;;;;;6.47;5.80;;;;;;;19.10;58.76;97915.50;8283649;28;20245;-73
2022/08/22 05:03:57;;;;;;;6.80;5.37;;;;;;;19.10;58.06;97914.69;8283995;28;20233;-74
2022/08/22 05:08:01;;;;;;;10.37;5.93;;;;;;;19.12;58.29;97913.59;8283736;28;20427;-73
2022/08/22 05:12:10;;;;;;;7.37;5.73;;;;;;;19.24;57.89;97914.41;8283257;28;20246;-74
2022/08/22 05:16:17;;;;;;;6.53;5.90;;;;;;;19.21;58.10;97917.28;8283690;28;20252;-73
2022/08/22 05:20:23;;;;;;;7.60;6.10;;;;;;;19.25;57.92;97925.75;8283567;28;20237;-73
2022/08/22 05:24:31;;;;;;;9.07;6.63;;;;;;;19.36;58.33;97919.63;8282888;28;20550;-74
2022/08/22 05:28:37;;;;;;;7.67;6.80;;;;;;;19.38;58.96;97925.56;8283185;28;20239;-73
2022/08/22 05:32:49;;;;;;;11.07;6.87;;;;;;;19.43;59.13;97923.41;8283091;28;20235;-73
2022/08/22 05:36:55;;;;;;;8.43;6.77;;;;;;;19.58;58.64;97922.16;8282422;28;20237;-74
2022/08/22 05:41:01;;;;;;;8.97;6.90;;;;;;;19.67;58.80;97918.78;8282693;28;20242;-74
2022/08/22 05:45:07;;;;;;;8.70;6.73;;;;;;;19.80;58.51;97926.53;8282902;28;20243;-74
2022/08/22 05:49:18;;;;;;;11.63;6.70;;;;;;;20.04;58.30;97930.69;8282524;28;20235;-74
2022/08/22 05:53:29;;;;;;;8.47;6.83;;;;;;;20.32;57.42;97929.19;8282600;28;20235;-74
2022/08/22 05:57:35;;;;;;;11.47;7.23;;;;;;;20.52;57.20;97930.13;8282569;28;20234;-74
2022/08/22 06:01:45;;;;;;;8.70;6.90;;;;;;;20.63;57.08;97930.06;8282356;28;20245;-74
2022/08/22 06:05:52;;;;;;;8.37;6.83;;;;;;;20.69;57.13;97936.59;8281721;28;20447;-73
2022/08/22 06:10:10;;;;;;;12.23;6.80;;;;;;;20.93;57.35;97938.06;8282010;28;20260;-74
2022/08/22 06:14:23;;;;;;;8.67;6.93;;;;;;;21.01;56.56;97928.53;8282089;28;20229;-74
2022/08/22 06:18:27;;;;;;;7.50;6.50;;;;;;;21.32;56.80;97944.25;8282017;28;20566;-74
2022/08/22 06:22:36;;;;;;;7.97;6.17;;;;;;;21.54;55.89;97934.47;8281217;28;20248;-74
2022/08/22 06:26:42;;;;;;;11.17;7.20;;;;;;;21.59;56.60;97943.63;8282028;28;20244;-74
2022/08/22 06:30:51;;;;;;;9.10;7.00;;;;;;;21.71;56.41;97941.69;8281318;28;20423;-74
2022/08/22 06:34:57;;;;;;;7.63;6.87;;;;;;;21.99;55.71;97944.41;8281868;28;20233;-74
2022/08/22 06:39:07;;;;;;;9.77;7.10;;;;;;;22.05;55.32;97938.63;8281823;28;20532;-74
2022/08/22 06:43:11;;;;;;;11.93;6.70;;;;;;;21.74;53.73;97935.28;8281102;28;20240;-74
2022/08/22 06:47:17;;;;;;;12.30;6.80;;;;;;;21.92;54.44;97938.91;8281533;28;20240;-74
2022/08/22 06:51:22;;;;;;;9.73;6.30;;;;;;;22.06;53.37;97934.97;8281605;28;20571;-72
2022/08/22 06:55:28;;;;;;;6.50;5.30;;;;;;;22.50;52.69;97937.97;8281469;28;20240;-72
2022/08/22 06:59:35;;;;;;;9.63;5.53;;;;;;;22.78;52.30;97940.63;8281391;28;20536;-72
2022/08/22 07:03:40;;;;;;;12.43;6.93;;;;;;;22.58;51.80;97938.09;8281498;28;20229;-73
2022/08/22 07:07:43;;;;;;;7.50;6.10;;;;;;;22.52;52.16;97937.81;8281484;28;20233;-73
2022/08/22 07:11:48;;;;;;;10.17;6.40;;;;;;;22.68;51.75;97938.03;8280935;28;20422;-73
2022/08/22 07:15:53;;;;;;;9.40;5.67;;;;;;;23.05;50.55;97941.66;8281042;28;20236;-73
2022/08/22 07:20:00;;;;;;;13.13;6.37;;;;;;;22.82;49.45;97937.56;8281189;28;20546;-73
2022/08/22 07:24:03;;;;;;;10.40;5.23;;;;;;;23.37;49.70;97936.72;8280463;28;20242;-78
2022/08/22 07:28:18;;;;;;;10.37;5.03;;;;;;;22.98;49.46;97930.81;8280796;28;20243;-73
2022/08/22 07:32:26;;;;;;;12.57;6.53;;;;;;;23.27;48.71;97935.13;8281693;28;20560;-73
2022/08/22 07:36:31;;;;;;;10.77;5.60;;;;;;;23.53;48.91;97945.78;8286533;28;20238;-73
2022/08/22 07:40:39;;;;;;;8.23;5.67;;;;;;;24.14;47.50;97937.09;8286309;28;20248;-73
2022/08/22 07:44:59;;;;;;;8.23;5.70;;;;;;;24.30;45.73;97927.59;8286118;28;20236;-73
2022/08/22 07:49:09;;;;;;;11.07;5.73;;;;;;;24.61;46.21;97938.53;8285879;28;20236;-73
2022/08/22 07:53:18;;;;;;;10.77;6.23;;;;;;;24.47;46.18;97934.63;8286267;28;20233;-73
2022/08/22 07:57:24;;;;;;;9.60;5.17;;;;;;;24.85;44.00;97937.00;8285838;28;20429;-73
2022/08/22 08:01:29;;;;;;;9.30;4.77;;;;;;;25.06;43.64;97937.41;8285696;28;20543;-73
2022/08/22 08:05:35;;;;;;;10.77;5.40;;;;;;;25.41;41.43;97938.19;8285752;28;20233;-74
2022/08/22 08:09:40;;;;;;;6.73;4.57;;;;;;;25.73;41.65;97931.28;8286275;28;20234;-73
2022/08/22 08:13:46;;;;;;;7.77;4.20;;;;;;;26.01;41.53;97933.59;8285372;28;20240;-72
2022/08/22 08:17:55;;;;;;;8.57;3.73;;;;;;;25.73;39.18;97937.41;8284853;28;20535;-72
2022/08/22 08:21:58;;;;;;;8.20;3.40;;;;;;;26.22;37.45;97935.78;8285133;28;20241;-72
2022/08/22 08:26:07;;;;;;;6.90;3.60;;;;;;;26.34;37.32;97932.56;8285295;28;20242;-71
2022/08/22 08:30:15;;;;;;;6.67;3.13;;;;;;;26.65;38.08;97937.16;8285063;28;20248;-72
2022/08/22 08:34:23;;;;;;;8.17;3.27;;;;;;;27.08;36.32;97942.97;8284815;28;20240;-72
2022/08/22 08:38:30;;;;;;;7.97;3.43;;;;;;;26.77;35.29;97945.63;8284759;28;20230;-74
2022/08/22 08:47:26;;;;;;;6.37;2.90;;;;;;;27.01;35.02;97942.00;8283641;28;20243;-71
2022/08/22 08:51:49;;;;;;;9.80;3.27;;;;;;;27.85;35.21;97938.69;8284163;28;20248;-73
2022/08/22 08:55:54;;;;;;;6.97;2.93;;;;;;;26.36;35.40;97935.06;8283496;28;20236;-72
2022/08/22 09:00:05;;;;;;;10.73;3.80;;;;;;;26.32;35.27;97941.72;8283776;28;20248;-72
2022/08/22 09:04:25;;;;;;;6.30;3.60;;;;;;;26.98;33.69;97939.72;8283806;28;20250;-73
2022/08/22 09:08:50;;;;;;;9.90;3.37;;;;;;;28.07;33.57;97932.56;8283765;28;20416;-73
2022/08/22 09:13:28;;;;;;;8.50;3.50;;;;;;;27.91;32.83;97926.53;8283351;28;20236;-73
2022/08/22 09:18:05;;;;;;;8.13;2.90;;;;;;;28.83;32.55;97929.78;8256976;28;20236;-73
2022/08/22 09:22:22;;;;;;;6.90;2.80;;;;;;;29.22;32.82;97928.63;8282878;28;20255;-73
2022/08/22 09:26:30;;;;;;;6.97;3.20;;;;;;;29.64;31.47;97928.84;8282961;28;20237;-72
2022/08/22 09:30:51;;;;;;;6.30;3.00;;;;;;;30.09;30.56;97920.66;8282893;28;20244;-73
2022/08/22 09:35:16;;;;;;;6.23;2.83;;;;;;;30.07;30.60;97922.69;8282502;28;20238;-73
2022/08/22 09:39:24;;;;;;;6.50;3.17;;;;;;;29.89;29.53;97916.00;8282688;28;20239;-74
2022/08/22 09:43:35;;;;;;;6.13;2.83;;;;;;;30.35;31.30;97928.06;8282633;28;20558;-74
2022/08/22 09:47:46;;;;;;;7.20;2.67;;;;;;;29.50;30.79;97925.22;8282458;28;20237;-75
2022/08/22 09:51:55;;;;;;;8.33;2.63;;;;;;;29.41;30.40;97923.69;8282058;28;20429;-70
2022/08/22 09:56:03;;;;;;;8.20;2.83;;;;;;;30.10;29.10;97912.47;8281196;28;20233;-71
2022/08/22 10:00:22;;;;;;;6.97;2.23;;;;;;;28.93;28.72;97908.16;8282214;28;20296;-71
2022/08/22 10:04:41;;;;;;;10.03;2.53;;;;;;;28.81;28.10;97910.47;8282284;28;20248;-71
2022/08/22 10:08:49;;;;;;;9.27;2.37;;;;;;;28.93;27.93;97912.69;8282099;28;20554;-71
2022/08/22 10:12:58;;;;;;;4.83;2.03;;;;;;;29.42;29.23;97915.50;8281388;28;20240;-72
2022/08/22 10:17:10;;;;;;;6.63;2.33;;;;;;;28.44;28.91;97927.34;8281688;28;20236;-72
2022/08/22 10:21:20;;;;;;;5.93;2.60;;;;;;;29.70;29.78;97927.25;8281833;28;20248;-72
2022/08/22 10:25:32;;;;;;;5.07;2.30;;;;;;;30.55;28.22;97918.31;8281601;28;20260;-72
2022/08/22 10:29:51;;;;;;;7.77;2.53;;;;;;;30.74;28.37;97926.63;8281790;28;20236;-72
2022/08/22 10:34:03;;;;;;;6.03;2.07;;;;;;;31.17;28.44;97923.75;8281217;28;20243;-73
2022/08/22 10:38:08;;;;;;;8.73;2.27;;;;;;;31.30;26.89;97934.50;8281611;28;20424;-72
2022/08/22 10:42:25;;;;;;;5.90;2.10;;;;;;;31.52;26.91;97929.84;8281540;28;20240;-72
2022/08/22 10:46:44;;;;;;;3.67;1.80;;;;;;;31.45;25.35;97938.84;8281189;28;20231;-72
2022/08/22 10:50:50;;;;;;;8.47;2.23;;;;;;;30.32;26.45;97936.47;8280794;28;20263;-72
2022/08/22 10:54:59;;;;;;;8.60;2.43;;;;;;;29.97;26.42;97929.19;8281043;28;20239;-72
2022/08/22 10:59:10;;;;;;;5.67;2.10;;;;;;;29.63;25.77;97927.22;8281180;28;20298;-72
2022/08/22 11:03:15;;;;;;;4.83;1.93;;;;;;;30.81;27.60;97927.50;8281026;28;20236;-72
2022/08/22 11:07:45;;;;;;;6.23;1.93;;;;;;;30.88;25.35;97923.00;8281985;28;20261;-73
2022/08/22 11:11:56;;;;;;;5.43;2.07;;;;;;;30.31;24.97;97913.41;8286754;28;20237;-72
2022/08/22 11:16:04;;;;;;;7.87;2.27;;;;;;;30.05;24.93;97906.03;8287107;28;20236;-72
2022/08/22 11:20:18;;;;;;;6.27;2.10;;;;;;;29.73;25.84;97913.56;8287042;28;20523;-72
2022/08/22 11:25:16;;;;;;;4.70;2.20;;;;;;;30.96;25.54;97904.16;8286986;28;20241;-72
2022/08/22 11:29:41;;;;;;;4.83;2.00;;;;;;;30.97;23.91;97896.94;8260590;28;20230;-73
2022/08/22 11:33:51;;;;;;;4.60;1.60;;;;;;;31.34;25.35;97892.94;8286619;28;20258;-73
2022/08/22 11:38:00;;;;;;;6.40;2.20;;;;;;;31.54;25.12;97889.50;8286134;28;20251;-73
2022/08/22 11:42:08;;;;;;;6.30;1.83;;;;;;;30.05;24.98;97890.03;8286468;28;20288;-72
2022/08/22 11:46:20;;;;;;;5.07;1.90;;;;;;;29.72;25.36;97882.53;8286414;28;20236;-73
2022/08/22 11:50:31;;;;;;;4.13;1.87;;;;;;;31.09;26.00;97876.63;8286182;28;20246;-70
2022/08/22 11:54:57;;;;;;;6.57;1.90;;;;;;;28.82;27.23;97879.31;8286247;28;20243;-73
2022/08/22 11:59:03;;;;;;;4.07;1.83;;;;;;;29.72;25.33;97872.69;8285713;28;20226;-72
2022/08/22 12:03:21;;;;;;;9.30;2.27;;;;;;;30.14;25.24;97860.31;8285752;28;20247;-73
2022/08/22 12:07:27;;;;;;;4.10;1.80;;;;;;;30.60;25.92;97865.09;8285624;28;20237;-73
2022/08/22 12:11:37;;;;;;;3.87;1.80;;;;;;;31.60;25.97;97866.44;8285431;28;20236;-72
2022/08/22 12:15:44;;;;;;;6.93;2.00;;;;;;;31.54;24.40;97865.41;8285166;28;20231;-73
2022/08/22 12:19:56;;;;;;;4.80;2.20;;;;;;;31.92;24.27;97856.75;8284300;28;20235;-72
2022/08/22 12:24:37;;;;;;;3.80;1.90;;;;;;;32.02;24.91;97842.97;8284892;28;20546;-71
2022/08/22 12:28:46;;;;;;;3.47;1.70;;;;;;;31.41;22.13;97830.59;8284728;28;20239;-72
2022/08/22 12:33:26;;;;;;;6.53;2.00;;;;;;;31.02;22.67;97834.84;8284367;28;20264;-70
2022/08/22 12:37:38;;;;;;;3.53;1.50;;;;;;;31.40;23.22;97835.13;8284634;28;20525;-71
2022/08/22 12:42:17;;;;;;;3.93;1.80;;;;;;;30.89;25.16;97824.91;8284249;28;20294;-72
2022/08/22 12:46:36;;;;;;;3.03;1.80;;;;;;;31.31;24.50;97825.66;8284457;28;20298;-72
2022/08/22 12:50:50;;;;;;;2.50;1.60;;;;;;;32.24;22.86;97816.78;8283844;28;20239;-71
2022/08/22 12:55:15;;;;;;;4.53;1.83;;;;;;;31.29;22.67;97800.94;8283928;28;20314;-72
2022/08/22 12:59:25;;;;;;;5.10;1.67;;;;;;;31.80;24.18;97816.41;8284066;28;20553;-72
2022/08/22 13:03:31;;;;;;;2.87;1.63;;;;;;;31.94;22.77;97798.47;8283823;28;20237;-72
2022/08/22 13:07:35;;;;;;;5.47;1.87;;;;;;;31.55;24.16;97803.66;8283708;28;20604;-72
2022/08/22 13:11:41;;;;;;;3.87;1.50;;;;;;;31.12;24.60;97811.22;8283650;28;20237;-72
2022/08/22 13:15:47;;;;;;;3.93;1.80;;;;;;;30.58;23.33;97811.03;8283625;28;20245;-72
2022/08/22 13:20:08;;;;;;;3.17;1.57;;;;;;;29.77;25.10;97805.44;8282963;28;20406;-72
2022/08/22 13:24:13;;;;;;;5.00;1.70;;;;;;;29.61;24.43;97810.00;8283225;28;20241;-72
2022/08/22 13:28:21;;;;;;;4.10;1.97;;;;;;;30.45;24.00;97810.16;8283101;28;20246;-72
2022/08/22 13:32:33;;;;;;;3.43;1.83;;;;;;;29.60;24.64;97808.34;8282873;28;20251;-72
2022/08/22 13:36:42;;;;;;;6.60;2.00;;;;;;;29.80;26.34;97813.06;8282769;28;20232;-72
2022/08/22 13:40:55;;;;;;;5.40;1.80;;;;;;;29.61;24.93;97811.84;8282563;28;20325;-72
2022/08/22 13:45:01;;;;;;;5.20;1.73;;;;;;;29.62;26.00;97811.66;8282779;28;20245;-72
2022/08/22 13:49:08;;;;;;;9.53;1.70;;;;;;;29.21;27.20;97812.34;8282471;28;20242;-72
2022/08/22 13:53:15;;;;;;;4.33;1.80;;;;;;;28.62;25.33;97813.31;8282419;28;20247;-72
2022/08/22 13:57:24;;;;;;;3.97;1.60;;;;;;;28.08;26.46;97805.59;8282609;28;20263;-72
2022/08/22 14:01:37;;;;;;;13.60;2.00;;;;;;;28.03;27.32;97803.50;8282142;28;20300;-73
2022/08/22 14:05:42;;;;;;;7.40;1.80;;;;;;;28.17;28.19;97803.69;8281881;28;20254;-72
2022/08/22 14:09:52;;;;;;;4.17;1.57;;;;;;;28.53;27.54;97798.44;8282023;28;20536;-72
2022/08/22 14:13:59;;;;;;;5.27;1.67;;;;;;;28.52;27.13;97799.47;8281193;28;20292;-72
2022/08/22 14:18:10;;;;;;;5.00;1.70;;;;;;;28.38;28.71;97803.75;8281701;28;20229;-72
2022/08/22 14:22:16;;;;;;;5.33;1.50;;;;;;;28.31;27.28;97800.22;8281421;28;20248;-72
2022/08/22 14:26:24;;;;;;;4.53;1.67;;;;;;;28.32;27.94;97796.53;8281698;28;20262;-72
2022/08/22 14:30:39;;;;;;;3.17;1.60;;;;;;;27.98;28.13;97799.75;8281678;28;20230;-72
2022/08/22 14:34:43;;;;;;;3.93;1.50;;;;;;;27.87;27.80;97800.97;8281645;28;20241;-72
2022/08/22 14:38:55;;;;;;;3.63;1.70;;;;;;;27.47;27.31;97805.69;8281114;28;20299;-72
2022/08/22 14:43:03;;;;;;;5.17;1.70;;;;;;;27.63;27.86;97807.38;8283544;28;20240;-72
2022/08/22 14:47:12;;;;;;;7.57;1.93;;;;;;;27.46;27.01;97806.69;8288091;28;20229;-72
2022/08/22 14:51:37;;;;;;;5.10;2.00;;;;;;;27.25;28.18;97800.22;8287883;28;20242;-72
2022/08/22 14:55:41;;;;;;;5.33;1.93;;;;;;;27.35;27.44;97807.13;8287845;28;20235;-72
2022/08/22 14:59:47;;;;;;;4.33;1.83;;;;;;;27.17;27.86;97805.56;8287492;28;20636;-72
2022/08/22 15:03:54;;;;;;;5.33;1.90;;;;;;;27.44;28.41;97806.06;8287201;28;20461;-72
2022/08/22 15:07:58;;;;;;;6.83;1.80;;;;;;;27.57;28.85;97797.44;8287761;28;20243;-72
2022/08/22 15:12:07;;;;;;;3.97;1.77;;;;;;;27.50;28.59;97795.50;8286722;28;20240;-72
2022/08/22 15:16:16;;;;;;;5.53;1.90;;;;;;;27.16;27.51;97795.13;8287266;28;20242;-72
2022/08/22 15:20:24;;;;;;;6.00;1.70;;;;;;;27.40;27.69;97783.50;8287082;28;20311;-72
2022/08/22 15:24:31;;;;;;;5.83;1.73;;;;;;;27.17;27.47;97784.31;8286922;28;20241;-72
2022/08/22 15:28:36;;;;;;;3.60;1.57;;;;;;;27.50;27.04;97784.88;8286323;28;20239;-72
2022/08/22 15:33:08;;;;;;;4.57;2.30;;;;;;;27.83;26.32;97781.88;8286302;28;20415;-72
2022/08/22 15:37:29;;;;;;;3.00;1.77;;;;;;;27.98;25.56;97779.28;8286897;28;20253;-72
2022/08/22 15:41:43;;;;;;;7.50;1.70;;;;;;;28.01;25.53;97773.59;8286660;28;20401;-72
2022/08/22 15:45:47;;;;;;;4.00;1.70;;;;;;;28.41;26.99;97770.63;8286487;28;20241;-72
2022/08/22 15:49:53;;;;;;;4.03;1.80;;;;;;;28.42;26.93;97764.28;8285835;28;20527;-72
2022/08/22 15:54:01;;;;;;;6.63;1.30;;;;;;;28.57;26.64;97766.94;8285998;28;20425;-72
2022/08/22 15:58:24;;;;;;;3.10;1.60;;;;;;;28.30;25.65;97766.59;8285848;28;20232;-72
2022/08/22 16:02:30;;;;;;;4.10;1.77;;;;;;;28.19;26.85;97764.41;8285769;28;20256;-72
2022/08/22 16:06:42;;;;;;;14.40;1.90;;;;;;;28.16;26.46;97760.28;8285609;28;20235;-73
2022/08/22 16:10:49;;;;;;;3.70;1.80;;;;;;;27.30;26.87;97757.97;8285705;28;20240;-72
2022/08/22 16:14:54;;;;;;;3.37;1.60;;;;;;;27.57;27.42;97755.75;8285060;28;20248;-72
2022/08/22 16:19:19;;;;;;;4.10;1.63;;;;;;;27.78;27.44;97748.84;8285248;28;20417;-72
2022/08/22 16:23:22;;;;;;;5.93;1.80;;;;;;;27.13;27.73;97755.59;8284757;28;20252;-72
2022/08/22 16:27:26;;;;;;;7.40;1.83;;;;;;;27.43;27.65;97751.22;8284735;28;20241;-73
2022/08/22 16:31:32;;;;;;;3.27;1.53;;;;;;;27.61;27.51;97746.38;8284557;28;20244;-72
2022/08/22 16:36:23;;;;;;;6.43;1.60;;;;;;;27.50;27.33;97746.81;8284631;28;20420;-73
2022/08/22 16:40:27;;;;;;;4.90;1.60;;;;;;;27.43;28.21;97746.72;8284394;28;20435;-73
2022/08/22 16:44:46;;;;;;;5.57;1.70;;;;;;;27.34;27.45;97744.31;8284559;28;20247;-73
2022/08/22 16:48:59;;;;;;;4.63;1.60;;;;;;;27.02;27.81;97752.34;8284057;28;20244;-73
2022/08/22 16:53:08;;;;;;;6.67;1.87;;;;;;;26.87;27.98;97754.13;8283932;28;20248;-72
2022/08/22 16:57:17;;;;;;;4.87;1.90;;;;;;;26.87;27.81;97748.81;8284264;28;20267;-73
2022/08/22 17:01:28;;;;;;;4.13;1.80;;;;;;;26.91;27.78;97755.44;8283994;28;20241;-72
2022/08/22 17:05:41;;;;;;;6.90;1.97;;;;;;;26.43;27.98;97758.19;8283235;28;20245;-72
2022/08/22 17:09:58;;;;;;;4.37;1.90;;;;;;;26.44;28.66;97765.13;8283615;28;20427;-72
2022/08/22 17:14:20;;;;;;;4.93;1.73;;;;;;;26.26;29.37;97764.56;8283318;28;20233;-72
2022/08/22 17:18:45;;;;;;;5.53;2.07;;;;;;;26.02;29.81;97773.44;8283672;28;20240;-72
2022/08/22 17:22:56;;;;;;;5.07;1.67;;;;;;;25.99;30.48;97771.97;8282367;28;20250;-72
2022/08/22 17:27:06;;;;;;;5.57;2.10;;;;;;;26.06;30.99;97772.91;8283618;28;20247;-72
2022/08/22 17:31:14;;;;;;;5.90;1.90;;;;;;;26.01;30.68;97777.06;8283192;28;20411;-72
2022/08/22 17:35:25;;;;;;;3.17;1.90;;;;;;;25.85;31.28;97780.59;8282927;28;20246;-73
2022/08/22 17:39:41;;;;;;;8.17;2.10;;;;;;;25.74;31.15;97781.75;8283170;28;20234;-73
2022/08/22 17:43:54;;;;;;;6.43;2.20;;;;;;;25.41;31.77;97778.34;8282761;28;20585;-73
2022/08/22 17:48:00;;;;;;;7.83;2.07;;;;;;;25.25;32.38;97787.13;8282831;28;20509;-73
2022/08/22 17:52:09;;;;;;;7.40;2.00;;;;;;;25.34;32.56;97791.41;8282888;28;20249;-72
2022/08/22 17:56:19;;;;;;;3.47;1.60;;;;;;;25.36;32.58;97795.56;8282279;28;20247;-73
2022/08/22 18:00:27;;;;;;;4.33;1.73;;;;;;;25.35;32.75;97796.53;8282586;28;20419;-72
2022/08/22 18:04:33;;;;;;;5.70;2.20;;;;;;;25.22;33.28;97800.66;8282503;28;20246;-76
2022/08/22 18:08:41;;;;;;;6.43;2.10;;;;;;;25.10;33.48;97800.97;8282145;28;20235;-73
2022/08/22 18:13:10;;;;;;;5.00;2.13;;;;;;;25.05;33.82;97800.63;8281365;28;20239;-74
2022/08/22 18:17:17;;;;;;;6.57;2.17;;;;;;;25.06;33.79;97809.44;8281075;28;20240;-73
2022/08/22 18:21:25;;;;;;;7.70;2.00;;;;;;;24.82;34.09;97812.84;8281937;28;20242;-74
2022/08/22 18:25:38;;;;;;;7.30;2.33;;;;;;;24.92;33.67;97819.69;8281688;28;20238;-74
2022/08/22 18:29:45;;;;;;;5.33;1.80;;;;;;;24.82;33.98;97824.28;8281600;28;20488;-74
2022/08/22 18:33:51;;;;;;;6.20;2.10;;;;;;;24.77;34.20;97824.78;8280557;28;20254;-73
2022/08/22 18:38:00;;;;;;;3.50;1.77;;;;;;;24.76;34.44;97832.88;8281909;28;20254;-73
2022/08/22 18:42:09;;;;;;;5.80;2.00;;;;;;;24.80;34.35;97833.38;8281651;28;20236;-73
2022/08/22 18:46:39;;;;;;;4.40;1.90;;;;;;;24.91;34.46;97833.91;8281502;28;20227;-73
2022/08/22 18:50:42;;;;;;;5.30;1.83;;;;;;;24.90;34.94;97839.34;8280846;28;20231;-74
2022/08/22 18:55:03;;;;;;;4.97;2.10;;;;;;;24.85;35.10;97842.50;8280670;28;20289;-73
2022/08/22 18:59:15;;;;;;;4.43;1.80;;;;;;;24.84;35.71;97840.00;8281200;28;20239;-72
2022/08/22 19:03:30;;;;;;;5.23;1.83;;;;;;;24.81;34.87;97853.56;8281291;28;20242;-73
2022/08/22 19:08:00;;;;;;;5.70;2.17;;;;;;;24.77;35.98;97861.84;8281285;28;20538;-73
2022/08/22 19:12:10;;;;;;;5.03;2.27;;;;;;;24.56;35.74;97858.75;8281213;28;20236;-73
2022/08/22 19:16:32;;;;;;;6.00;2.23;;;;;;;24.20;36.88;97861.56;8281340;28;20239;-73
2022/08/22 19:25:16;;;;;;;8.50;2.23;;;;;;;24.14;37.42;97868.31;8279087;28;20233;-73
2022/08/22 19:29:54;;;;;;;6.77;2.40;;;;;;;23.82;38.13;97874.22;8281899;28;20235;-73
2022/08/22 19:34:15;;;;;;;4.17;2.13;;;;;;;23.70;37.95;97880.69;8284613;28;20233;-73
2022/08/22 19:38:55;;;;;;;10.23;2.53;;;;;;;23.48;38.48;97869.59;8284832;28;20249;-73
2022/08/22 19:42:58;;;;;;;8.17;2.40;;;;;;;23.49;38.40;97881.00;8284357;28;20251;-73
2022/08/22 19:47:07;;;;;;;7.73;2.30;;;;;;;23.61;38.81;97883.25;8284932;28;20309;-72
2022/08/22 19:51:24;;;;;;;8.30;2.80;;;;;;;23.63;38.67;97888.41;8284694;28;20234;-72
2022/08/22 19:55:33;;;;;;;4.57;2.27;;;;;;;23.46;39.00;97882.16;8284221;28;20244;-72